Flight Track Log - Related Links

Times and Time Zones

All times are in EST time to prevent confusion due to time zone crossing. See the N830QS flight status page for this flight to view local times or setup timezone preferences in your user account.

Time Position Orientation Groundspeed Altitude Reporting Facility
EST Latitude Longitude Course Direction KTS MPH feet Rate Location/Type
Wed 06:04:02 AM 40.7875 -75.0686 279° West 268 308 31,800  Level New York Center
Wed 06:05:02 AM 40.7922 -75.1647 274° West 274 315 33,700 1,650 Climbing New York Center
Wed 06:06:00 AM 40.9548 -74.8940 280° West  Level Estimated
Wed 06:06:02 AM 40.7969 -75.2639 274° West 274 315 35,100  Level New York Center
Wed 06:07:00 AM 40.9698 -75.0179 279° West  Level Estimated
Wed 06:07:02 AM 40.7994 -75.3625 272° West 274 315 36,600  Level New York Center
Wed 06:08:00 AM 40.9847 -75.1420 279° West  Level Estimated
Wed 06:08:02 AM 40.8058 -75.4617 275° West 274 315 38,000  Level New York Center
Wed 06:09:00 AM 40.9994 -75.2660 279° West  Level Estimated
Wed 06:09:02 AM 40.8106 -75.5581 274° West 274 315 38,500  Level New York Center
Wed 06:10:02 AM 40.8147 -75.6569 273° West 274 315 39,300 750 Climbing New York Center
Wed 06:11:02 AM 40.8211 -75.7564 275° West 274 315 40,000 350 Climbing New York Center
Wed 06:12:02 AM 40.8269 -75.8636 274° West 280 322 40,000  Level New York Center
Wed 06:13:02 AM 40.8386 -75.9742 278° West 295 339 40,000  Level New York Center
Wed 06:14:02 AM 40.8503 -76.0875 278° West 307 353 40,000  Level New York Center
Wed 06:15:02 AM 40.8658 -76.2069 280° West 318 366 40,000  Level New York Center
Wed 06:16:02 AM 40.8789 -76.3258 278° West 324 373 40,000  Level New York Center
Wed 06:17:02 AM 40.8919 -76.4450 278° West 329 379 40,000  Level New York Center
Wed 06:18:02 AM 40.9050 -76.5642 278° West 334 384 40,000  Level New York Center
Wed 06:19:02 AM 40.9175 -76.6889 278° West 334 384 40,000  Level New York Center
Wed 06:20:02 AM 40.9300 -76.8136 278° West 334 384 40,000  Level New York Center
Wed 06:21:02 AM 40.9447 -76.9358 279° West 334 384 40,000  Level New York Center
Wed 06:22:02 AM 40.9567 -77.0633 277° West 339 390 40,000  Level New York Center
Wed 06:23:02 AM 40.9711 -77.1828 279° West 339 390 40,000  Level New York Center
Wed 06:24:48 AM 40.9933 -77.4081 278° West 341 392 40,000  Level Cleveland Center
Wed 06:25:48 AM 41.0050 -77.5317 277° West 340 391 40,000  Level Cleveland Center
Wed 06:26:49 AM 41.0175 -77.6539 278° West 338 389 40,000  Level Cleveland Center
Wed 06:27:50 AM 41.0294 -77.7781 277° West 342 394 40,000  Level Cleveland Center
Wed 06:28:51 AM 41.0414 -77.9033 277° West 344 396 40,000  Level Cleveland Center
Wed 06:29:51 AM 41.0531 -78.0261 277° West 340 391 40,000  Level Cleveland Center
Wed 06:30:52 AM 41.0650 -78.1497 277° West 342 394 40,000  Level Cleveland Center
Wed 06:31:53 AM 41.0772 -78.2853 277° West 340 391 40,000  Level Cleveland Center
Wed 06:32:54 AM 41.0889 -78.4100 277° West 341 392 40,000  Level Cleveland Center
Wed 06:33:55 AM 41.1014 -78.5325 278° West 338 389 40,000  Level Cleveland Center
Wed 06:34:55 AM 41.1114 -78.6539 276° West 336 387 40,000  Level Cleveland Center
Wed 06:35:56 AM 41.1222 -78.7767 277° West 335 386 40,000  Level Cleveland Center
Wed 06:36:57 AM 41.1336 -78.8972 277° West 334 384 40,000  Level Cleveland Center
Wed 06:37:58 AM 41.1417 -79.0144 275° West 326 375 40,000  Level Cleveland Center
Wed 06:38:59 AM 41.1528 -79.1386 277° West 334 384 40,000  Level Cleveland Center
Wed 06:40:00 AM 41.1625 -79.2628 276° West 339 390 40,000  Level Cleveland Center
Wed 06:41:01 AM 41.1739 -79.3928 277° West 353 406 40,000  Level Cleveland Center
Wed 06:42:02 AM 41.1856 -79.5389 276° West 339 390 40,000  Level Cleveland Center
Wed 06:43:03 AM 41.1950 -79.6617 276° West 336 387 40,000  Level Cleveland Center
Wed 06:44:04 AM 41.2047 -79.7847 276° West 335 386 40,000  Level Cleveland Center
Wed 06:45:05 AM 41.2144 -79.9097 276° West 339 390 40,000  Level Cleveland Center
Wed 06:46:06 AM 41.2239 -80.0353 276° West 344 396 40,000  Level Cleveland Center
Wed 06:47:07 AM 41.2331 -80.1625 276° West 348 400 40,000  Level Cleveland Center
Wed 06:48:08 AM 41.2422 -80.2856 276° West 342 394 40,000  Level Cleveland Center
Wed 06:49:09 AM 41.2533 -80.4222 276° West 338 389 40,000  Level Cleveland Center
Wed 06:50:10 AM 41.2633 -80.5500 276° West 343 395 40,000  Level Cleveland Center
Wed 06:51:11 AM 41.2717 -80.6767 275° West 343 395 40,000  Level Cleveland Center
Wed 06:52:12 AM 41.2806 -80.8056 275° West 347 399 40,000  Level Cleveland Center
Wed 06:53:13 AM 41.2889 -80.9325 275° West 343 395 40,000  Level Cleveland Center
Wed 06:54:14 AM 41.2983 -81.0614 276° West 348 400 40,000  Level Cleveland Center
Wed 06:55:15 AM 41.3069 -81.1914 275° West 348 400 40,000  Level Cleveland Center
Wed 06:56:16 AM 41.3156 -81.3217 275° West 349 402 40,000  Level Cleveland Center
Wed 06:57:18 AM 41.3236 -81.4525 275° West 353 406 40,000  Level Cleveland Center
Wed 06:58:19 AM 41.3317 -81.5828 275° West 355 409 40,000  Level Cleveland Center
Wed 06:59:20 AM 41.3397 -81.7119 275° West 353 406 40,000  Level Cleveland Center
Wed 07:00:21 AM 41.3478 -81.8419 275° West 354 407 40,000  Level Cleveland Center
Wed 07:01:22 AM 41.3572 -81.9958 275° West 366 421 40,000  Level Cleveland Center
Wed 07:02:23 AM 41.3656 -82.1314 275° West 365 420 40,000  Level Cleveland Center
Wed 07:03:25 AM 41.3736 -82.2681 275° West 366 421 40,000  Level Cleveland Center
Wed 07:04:26 AM 41.3814 -82.4039 274° West 366 421 40,000  Level Cleveland Center
Wed 07:05:27 AM 41.3886 -82.5392 274° West 363 418 40,000  Level Cleveland Center
Wed 07:06:28 AM 41.3953 -82.6753 274° West 365 420 40,000  Level Cleveland Center
Wed 07:07:30 AM 41.4036 -82.8114 275° West 365 420 40,000  Level Cleveland Center
Wed 07:08:31 AM 41.4106 -82.9464 274° West 362 417 40,000  Level Cleveland Center
Wed 07:09:32 AM 41.4164 -83.0814 273° West 363 418 40,000  Level Cleveland Center
Wed 07:10:34 AM 41.4239 -83.2136 274° West 359 413 40,000  Level Cleveland Center
Wed 07:11:35 AM 41.4308 -83.3450 274° West 357 411 40,000  Level Cleveland Center
Wed 07:12:36 AM 41.4381 -83.5033 274° West 357 411 40,000  Level Cleveland Center
Wed 07:13:38 AM 41.4431 -83.6347 273° West 356 410 40,000  Level Cleveland Center
Wed 07:14:39 AM 41.4494 -83.7644 274° West 351 404 40,000 -98 Level Cleveland Center
Wed 07:15:40 AM 41.4550 -83.8964 273° West 354 407 39,800 -1,024 Descending Cleveland Center
Wed 07:16:42 AM 41.4608 -84.0297 273° West 360 414 37,900 -1,854 Descending Cleveland Center
Wed 07:17:43 AM 41.4661 -84.1644 273° West 362 417 36,000 -1,951 Descending Cleveland Center
Wed 07:18:45 AM 41.4717 -84.3072 273° West 372 428 33,900 -1,967 Descending Chicago Center
Wed 07:19:45 AM 41.4758 -84.4425 272° West 368 423 32,000 -1,884 Descending Chicago Center
Wed 07:20:46 AM 41.4814 -84.5817 273° West 374 430 30,100 -984 Descending Chicago Center
Wed 07:21:47 AM 41.4864 -84.7189 273° West 373 429 30,000 -49 Descending Chicago Center
Wed 07:22:48 AM 41.4919 -84.8611 273° West 382 440 30,000  Level Chicago Center
Wed 07:23:49 AM 41.4964 -85.0014 272° West 380 437 30,000 -645 Level Chicago Center
Wed 07:24:49 AM 41.5011 -85.1428 273° West 382 440 28,700 -1,636 Descending Chicago Center
Wed 07:25:50 AM 41.5056 -85.2853 272° West 381 438 26,700 -2,016 Descending Chicago Center
Wed 07:26:51 AM 41.5103 -85.4289 273° West 380 437 24,600 -1,967 Descending Chicago Center
Wed 07:27:52 AM 41.5131 -85.5672 272° West 366 421 22,700 -1,869 Descending Chicago Center
Wed 07:28:53 AM 41.5167 -85.6989 272° West 355 409 20,800 -1,869 Descending Chicago Center
Wed 07:29:54 AM 41.5200 -85.8306 272° West 353 406 18,900 -1,820 Descending Chicago Center
Wed 07:30:55 AM 41.5228 -85.9606 272° West 351 404 17,100 -1,770 Descending Chicago Center
Wed 07:31:56 AM 41.5244 -86.0861 271° West 342 394 15,300 -1,918 Descending Chicago Center
Wed 07:32:57 AM 41.5239 -86.2317 270° West 327 376 13,200 -1,770 Descending Chicago Center
Wed 07:33:58 AM 41.5233 -86.3439 270° West 306 352 11,700 -1,279 Descending Chicago Center
Wed 07:34:59 AM 41.5217 -86.4606 269° West 313 360 10,600 -836 Descending Chicago Center
Wed 07:36:00 AM 41.5214 -86.5719 270° West 303 349 10,000 -344 Descending Chicago Center
Wed 07:37:01 AM 41.5211 -86.6847 270° West 306 352 9,900 -49 Descending Chicago Center
Wed 07:38:02 AM 41.5206 -86.8061 270° West 302 348 9,900 -197 Level Chicago Center
Wed 07:39:03 AM 41.5181 -86.9069 268° West 278 320 9,500 -836 Descending Chicago Center
Wed 07:40:04 AM 41.5175 -87.0039 270° West 264 304 8,200 -1,279 Descending Chicago Center
Wed 07:41:05 AM 41.5272 -87.0978 278° West 258 297 6,900 -1,317 Descending Chicago Center
Wed 07:42:07 AM 41.5456 -87.1881 285° West 253 291 5,500 -1,317 Descending Chicago Center
Wed 07:43:08 AM 41.5697 -87.2681 292° West 240 276 4,200 -738 Descending Chicago Center
Wed 07:44:09 AM 41.5936 -87.3478 292° West 236 272 4,000 -98 Descending Chicago Center
Wed 07:45:10 AM 41.6167 -87.4292 291° West 235 270 4,000  Level Chicago Center
Wed 07:46:11 AM 41.6397 -87.5089 291° West 234 269 4,000  Level Chicago Center
Wed 07:47:13 AM 41.6694 -87.5875 297° West 214 246 4,000 -439 Level Chicago Center
Wed 07:48:14 AM 41.7014 -87.6356 312° West 187 215 3,100 -885 Descending Chicago Center
Wed 07:49:15 AM 41.7306 -87.6764 314° West 171 197 2,200 -732 Descending Chicago Center
Wed 07:50:17 AM 41.7514 -87.7047 315° West 137 158 1,600 -585 Descending Chicago Center
Wed 07:51:18 AM 41.7694 -87.7303 313° West 111 128 1,000 -590 Descending Chicago Center
Wed 07:53:00 AM 41.7860 -87.7524 315° West  Level Estimated
Wed 08:00:00 AM 41.7860 -87.7524 48° Northeast  Level Estimated

Login

Don't have an account? Register now (free) for customized features, flight alerts, and more!